This is the latest recevied weather packets stored in our database for station/object EI4HQ. If no packets are shown the sender has not sent any weather packets the latest 1 day(s).
| Time | Temp. | Humidity | Pressure | Rain* | Wind** | Luminosity | Snow |
|---|---|---|---|---|---|---|---|
| 1836274677 | 11.67° C | 91% | 1010.2 hPa | 0 mm | 3.58 m/s, 337° | - | - |
| 1836274467 | 11.67° C | 91% | 1010.4 hPa | 0 mm | 2.68 m/s, 336° | - | - |
| 1836274137 | 11.67° C | 91% | 1010.2 hPa | 0 mm | 3.13 m/s, 338° | - | - |
| 1778032803 | 9.44° C | 83% | 1015.5 hPa | 0 mm | 1.79 m/s, 341° | - | - |
| 1778032443 | 9.44° C | 83% | 1015.6 hPa | 0 mm | 1.79 m/s, 339° | - | - |
| 1778031903 | 9.44° C | 83% | 1015.7 hPa | 0 mm | 2.24 m/s, 338° | - | - |
| 1778031363 | 9.44° C | 83% | 1015.8 hPa | 0 mm | 2.68 m/s, 338° | - | - |
| 1778030823 | 9.44° C | 82% | 1015.9 hPa | 0 mm | 2.68 m/s, 337° | - | - |
| 1778030283 | 9.44° C | 82% | 1015.9 hPa | 0 mm | 2.24 m/s, 339° | - | - |
| 1778029743 | 9.44° C | 82% | 1015.9 hPa | 0 mm | 2.24 m/s, 343° | - | - |
| 1778029203 | 9.44° C | 82% | 1015.9 hPa | 0 mm | 2.24 m/s, 338° | - | - |
| 1778028843 | 10° C | 82% | 1015.9 hPa | 0 mm | 2.68 m/s, 339° | - | - |
| 1778028303 | 10° C | 82% | 1016 hPa | 0 mm | 2.68 m/s, 338° | - | - |
| 1778027763 | 10° C | 82% | 1016.1 hPa | 0 mm | 2.24 m/s, 334° | - | - |
| 1778027223 | 10° C | 81% | 1016 hPa | 0 mm | 2.24 m/s, 335° | - | - |
| 1778026683 | 10° C | 81% | 1016 hPa | 0 mm | 2.24 m/s, 335° | - | - |
| 1778026143 | 10° C | 81% | 1016.1 hPa | 0 mm | 2.24 m/s, 337° | - | - |
| 1778025603 | 10° C | 81% | 1016.1 hPa | 0 mm | 2.24 m/s, 336° | - | - |
| 1778025243 | 10° C | 81% | 1016.1 hPa | 0 mm | 2.68 m/s, 336° | - | - |
| 1778024703 | 10° C | 81% | 1016.1 hPa | 0 mm | 3.13 m/s, 337° | - | - |
| 1778024163 | 10° C | 81% | 1016.1 hPa | 0 mm | 2.68 m/s, 336° | - | - |
| 1778023623 | 10° C | 81% | 1016.2 hPa | 0 mm | 2.68 m/s, 337° | - | - |
| 1778023083 | 10° C | 81% | 1016.2 hPa | 0 mm | 2.24 m/s, 335° | - | - |
| 1778022543 | 10° C | 80% | 1016.3 hPa | 0 mm | 2.24 m/s, 336° | - | - |
| 1778022003 | 10° C | 80% | 1016.3 hPa | 0 mm | 1.79 m/s, 335° | - | - |
* Rain latest hour (hover to see other rain measurements)
** Current wind speed in m/s (hover to see current wind gust speed)